createdAt,value
2018-10-12T00:00:17.848Z,23.6
2018-10-12T00:01:08.214Z,23.6
2018-10-12T00:01:58.273Z,23.6
2018-10-12T00:02:47.817Z,23.5
2018-10-12T00:03:38.149Z,23.5
2018-10-12T00:04:27.941Z,23.6
2018-10-12T00:05:18.296Z,23.6
2018-10-12T00:06:09.085Z,23.6
2018-10-12T00:06:58.745Z,23.6
2018-10-12T00:25:15.685Z,23.5
2018-10-12T00:26:05.268Z,23.5
2018-10-12T00:26:54.602Z,23.5
2018-10-12T00:27:45.632Z,23.5
2018-10-12T00:28:35.138Z,23.5
2018-10-12T00:29:25.528Z,23.5
2018-10-12T00:30:16.068Z,23.5
2018-10-12T00:31:05.950Z,23.5
2018-10-12T00:31:55.728Z,23.5
2018-10-12T00:32:45.430Z,23.5
2018-10-12T00:33:36.079Z,23.5
2018-10-12T00:34:25.929Z,23.5
2018-10-12T00:35:16.602Z,23.5
2018-10-12T00:36:05.972Z,23.5
2018-10-12T00:36:55.734Z,23.5
2018-10-12T00:37:46.347Z,23.5
2018-10-12T00:38:35.895Z,23.5
2018-10-12T00:39:25.395Z,23.5
2018-10-12T00:40:16.247Z,23.5
2018-10-12T00:41:06.323Z,23.4
2018-10-12T00:41:56.788Z,23.5
2018-10-12T00:42:46.754Z,23.5
2018-10-12T00:43:36.237Z,23.5
2018-10-12T00:44:26.339Z,23.5
2018-10-12T00:45:16.683Z,23.5
2018-10-12T00:46:07.259Z,23.4
2018-10-12T00:46:56.494Z,23.4
2018-10-12T00:47:46.689Z,23.4
2018-10-12T00:48:37.017Z,23.5
2018-10-12T00:49:26.654Z,23.5
2018-10-12T00:50:16.749Z,23.5
2018-10-12T00:51:07.054Z,23.4
2018-10-12T00:51:57.417Z,23.5
2018-10-12T00:52:47.234Z,23.4
2018-10-12T00:53:37.284Z,23.5
2018-10-12T00:54:27.339Z,23.4
2018-10-12T00:55:17.459Z,23.4
2018-10-12T00:56:07.709Z,23.5
2018-10-12T00:56:57.241Z,23.4
2018-10-12T00:57:47.896Z,23.4
2018-10-12T00:58:37.329Z,23.5
2018-10-12T00:59:27.976Z,23.4
2018-10-12T01:00:18.051Z,23.4
2018-10-12T01:01:07.538Z,23.5
2018-10-12T01:01:57.899Z,23.4
2018-10-12T01:02:47.991Z,23.4
2018-10-12T01:03:37.723Z,23.4
2018-10-12T01:04:28.633Z,23.4
2018-10-12T01:05:17.880Z,23.4
2018-10-12T01:06:08.973Z,23.5
2018-10-12T01:06:57.724Z,23.4
2018-10-12T01:07:48.031Z,23.4
2018-10-12T01:08:38.666Z,23.4
2018-10-12T01:09:28.423Z,23.4
2018-10-12T01:10:18.788Z,23.4
2018-10-12T01:11:08.576Z,23.4
2018-10-12T01:11:58.648Z,23.4
2018-10-12T01:12:48.715Z,23.4
2018-10-12T01:13:38.197Z,23.4
2018-10-12T01:14:28.613Z,23.4
2018-10-12T01:15:18.628Z,23.5
2018-10-12T01:16:08.979Z,23.4
2018-10-12T01:16:59.283Z,23.4
2018-10-12T01:17:49.070Z,23.4
2018-10-12T01:18:39.410Z,23.4
2018-10-12T01:19:29.145Z,23.4
2018-10-12T01:20:19.220Z,23.4
2018-10-12T01:21:08.735Z,23.4
2018-10-12T01:21:59.899Z,23.4
2018-10-12T01:22:49.464Z,23.4
2018-10-12T01:23:39.239Z,23.4
2018-10-12T01:24:29.849Z,23.4
2018-10-12T01:25:19.607Z,23.4
2018-10-12T01:26:09.950Z,23.4
2018-10-12T01:26:59.752Z,23.4
2018-10-12T01:27:49.839Z,23.4
2018-10-12T01:28:39.301Z,23.4
2018-10-12T01:29:29.670Z,23.4
2018-10-12T01:30:20.034Z,23.4
2018-10-12T01:31:09.814Z,23.4
2018-10-12T01:31:59.854Z,23.4
2018-10-12T01:32:50.204Z,23.4
2018-10-12T01:33:39.680Z,23.4
2018-10-12T01:34:30.336Z,23.4
2018-10-12T01:35:20.326Z,23.4
2018-10-12T01:36:09.621Z,23.4
2018-10-12T01:37:00.458Z,23.4
2018-10-12T01:37:50.825Z,23.4
2018-10-12T01:38:40.625Z,23.4
2018-10-12T01:39:30.986Z,23.4
2018-10-12T01:40:20.187Z,23.4
2018-10-12T01:41:10.786Z,23.4
2018-10-12T01:42:00.861Z,23.4
2018-10-12T01:42:51.163Z,23.4
2018-10-12T01:43:40.706Z,23.4
2018-10-12T01:44:30.763Z,23.4
2018-10-12T01:45:21.403Z,23.4
2018-10-12T01:46:10.594Z,23.4
2018-10-12T01:47:01.205Z,23.4
2018-10-12T01:47:51.536Z,23.4
2018-10-12T01:48:40.820Z,23.4
2018-10-12T01:49:31.425Z,23.4
2018-10-12T01:50:21.783Z,23.4
2018-10-12T01:51:10.733Z,23.4
2018-10-12T01:52:01.626Z,23.4
2018-10-12T01:52:51.711Z,23.4
2018-10-12T01:53:42.036Z,23.4
2018-10-12T01:54:30.931Z,23.4
2018-10-12T01:55:22.099Z,23.4
2018-10-12T01:56:12.193Z,23.4
2018-10-12T01:57:01.987Z,23.4
2018-10-12T01:57:52.359Z,23.4
2018-10-12T01:58:42.083Z,23.4
2018-10-12T01:59:32.201Z,23.4
2018-10-12T02:00:22.541Z,23.4
2018-10-12T02:01:12.575Z,23.4
2018-10-12T02:02:01.550Z,23.4
2018-10-12T02:02:52.128Z,23.4
2018-10-12T02:03:42.794Z,23.4
2018-10-12T02:04:32.265Z,23.4
2018-10-12T02:05:22.576Z,23.4
2018-10-12T02:06:12.932Z,23.4
2018-10-12T02:07:03.039Z,23.4
2018-10-12T02:07:51.910Z,23.4
2018-10-12T02:08:43.088Z,23.4
2018-10-12T02:09:32.927Z,23.4
2018-10-12T02:10:22.712Z,23.4
2018-10-12T02:11:12.720Z,23.4
2018-10-12T02:12:03.088Z,23.4
2018-10-12T02:12:53.155Z,23.4
2018-10-12T02:13:42.632Z,23.4
2018-10-12T02:14:33.596Z,23.4
2018-10-12T02:15:22.757Z,23.4
2018-10-12T02:16:13.395Z,23.4
2018-10-12T02:17:03.222Z,23.4
2018-10-12T02:17:53.763Z,23.4
2018-10-12T02:18:43.602Z,23.4
2018-10-12T02:19:33.710Z,23.4
2018-10-12T02:20:22.824Z,23.4
2018-10-12T02:21:13.541Z,23.4
2018-10-12T02:22:03.552Z,23.4
2018-10-12T02:22:54.196Z,23.4
2018-10-12T02:23:44.214Z,23.4
2018-10-12T02:24:34.026Z,23.4
2018-10-12T02:25:24.103Z,23.4
2018-10-12T02:26:14.151Z,23.4
2018-10-12T02:27:04.509Z,23.4
2018-10-12T02:27:53.678Z,23.4
2018-10-12T02:28:44.269Z,23.4
2018-10-12T02:29:34.636Z,23.4
2018-10-12T02:30:24.829Z,23.4
2018-10-12T02:31:14.249Z,23.4
2018-10-12T02:32:04.621Z,23.4
2018-10-12T02:32:54.673Z,23.4
2018-10-12T02:33:44.720Z,23.4
2018-10-12T02:34:34.780Z,23.4
2018-10-12T02:35:24.810Z,23.4
2018-10-12T02:36:14.603Z,23.4
2018-10-12T02:37:05.252Z,23.4
2018-10-12T02:37:55.293Z,23.4
2018-10-12T02:38:45.150Z,23.4
2018-10-12T02:39:35.421Z,23.4
2018-10-12T02:40:24.919Z,23.4
2018-10-12T02:41:15.300Z,23.4
2018-10-12T02:42:05.567Z,23.4
2018-10-12T02:42:55.392Z,23.4
2018-10-12T02:43:45.659Z,23.4
2018-10-12T02:44:35.773Z,23.4
2018-10-12T02:45:25.280Z,23.4
2018-10-12T02:46:15.596Z,23.4
2018-10-12T02:47:06.025Z,23.4
2018-10-12T02:47:55.451Z,23.4
2018-10-12T02:48:45.273Z,23.4
2018-10-12T02:49:35.910Z,23.4
2018-10-12T02:50:25.967Z,23.4
2018-10-12T02:51:16.016Z,23.4
2018-10-12T02:52:05.237Z,23.4
2018-10-12T02:52:55.554Z,23.4
2018-10-12T02:53:46.494Z,23.4
2018-10-12T02:54:36.530Z,23.4
2018-10-12T02:55:26.627Z,23.4
2018-10-12T02:56:16.388Z,23.4
2018-10-12T02:57:06.472Z,23.4
2018-10-12T02:57:56.501Z,23.4
2018-10-12T02:58:46.574Z,23.4
2018-10-12T02:59:36.657Z,23.4
2018-10-12T03:00:27.010Z,23.4
2018-10-12T03:01:15.944Z,23.4
2018-10-12T03:02:07.108Z,23.4
2018-10-12T03:02:56.065Z,23.4
2018-10-12T03:03:47.013Z,23.4
2018-10-12T03:04:37.392Z,23.4
2018-10-12T03:05:27.115Z,23.4
2018-10-12T03:06:17.610Z,23.4
2018-10-12T03:07:07.199Z,23.4
2018-10-12T03:07:56.971Z,23.4
2018-10-12T03:08:47.329Z,23.4
2018-10-12T03:09:37.656Z,23.5
2018-10-12T03:10:27.429Z,23.5
2018-10-12T03:11:17.488Z,23.5
2018-10-12T03:12:07.850Z,23.5
2018-10-12T03:12:57.376Z,23.4
2018-10-12T03:13:47.673Z,23.4
2018-10-12T03:14:37.730Z,23.4
2018-10-12T03:15:27.778Z,23.4
2018-10-12T03:16:17.343Z,23.5
2018-10-12T03:17:08.229Z,23.5
2018-10-12T03:17:57.993Z,23.6
2018-10-12T03:18:48.366Z,23.6
2018-10-12T03:19:37.755Z,23.6
2018-10-12T03:20:27.954Z,23.6
2018-10-12T03:21:18.248Z,23.6
2018-10-12T03:22:08.025Z,23.6
2018-10-12T03:22:58.585Z,23.6
2018-10-12T03:23:48.464Z,23.7
2018-10-12T03:24:38.223Z,23.7
2018-10-12T03:25:29.437Z,23.7
2018-10-12T03:26:17.824Z,23.7
2018-10-12T03:27:07.683Z,23.7
2018-10-12T03:27:58.745Z,23.7
2018-10-12T03:28:48.297Z,23.7
2018-10-12T03:29:39.132Z,23.7
2018-10-12T03:30:29.195Z,23.7
2018-10-12T03:31:19.380Z,23.7
2018-10-12T03:32:08.915Z,23.7
2018-10-12T03:32:58.527Z,23.7
2018-10-12T03:33:49.173Z,23.7
2018-10-12T03:34:38.940Z,23.7
2018-10-12T03:35:28.996Z,23.7
2018-10-12T03:36:19.337Z,23.7
2018-10-12T03:37:08.759Z,23.7
2018-10-12T03:37:59.462Z,23.7
2018-10-12T03:38:49.183Z,23.7
2018-10-12T03:39:39.341Z,23.7
2018-10-12T03:40:29.699Z,23.7
2018-10-12T03:41:19.441Z,23.7
2018-10-12T03:42:10.064Z,23.7
2018-10-12T03:42:59.854Z,23.7
2018-10-12T03:43:49.621Z,23.7
2018-10-12T03:44:39.989Z,23.7
2018-10-12T03:45:30.267Z,23.7
2018-10-12T03:46:18.958Z,23.8
2018-10-12T03:47:10.155Z,23.7
2018-10-12T03:47:59.625Z,23.7
2018-10-12T03:48:50.569Z,23.7
2018-10-12T03:49:40.319Z,23.7
2018-10-12T03:50:29.886Z,23.7
2018-10-12T03:51:20.478Z,23.7
2018-10-12T03:52:10.256Z,23.7
2018-10-12T03:53:00.288Z,23.7
2018-10-12T03:53:50.125Z,23.7
2018-10-12T03:54:40.976Z,23.7
2018-10-12T03:55:30.773Z,23.7
2018-10-12T03:56:19.998Z,23.7
2018-10-12T03:57:10.853Z,23.7
2018-10-12T03:58:00.635Z,23.7
2018-10-12T03:58:50.436Z,23.7
2018-10-12T03:59:40.260Z,23.7
2018-10-12T04:00:30.575Z,23.7
2018-10-12T04:01:20.638Z,23.7
2018-10-12T04:02:10.989Z,23.7
2018-10-12T04:03:02.115Z,23.7
2018-10-12T04:03:51.388Z,23.7
2018-10-12T04:04:41.163Z,23.7
2018-10-12T04:05:31.569Z,23.7
2018-10-12T04:06:20.794Z,23.7
2018-10-12T04:07:11.420Z,23.7
2018-10-12T04:08:01.464Z,23.7
2018-10-12T04:08:51.055Z,23.7
2018-10-12T04:09:41.339Z,23.7
2018-10-12T04:10:31.345Z,23.7
2018-10-12T04:11:21.752Z,23.7
2018-10-12T04:12:11.685Z,23.7
2018-10-12T04:13:02.364Z,23.7
2018-10-12T04:13:52.157Z,23.7
2018-10-12T04:14:41.935Z,23.7
2018-10-12T04:15:32.250Z,23.7
2018-10-12T04:16:22.328Z,23.7
2018-10-12T04:17:12.637Z,23.7
2018-10-12T04:18:02.433Z,23.6
2018-10-12T04:18:52.500Z,23.7
2018-10-12T04:19:42.563Z,23.7
2018-10-12T04:20:32.855Z,23.7
2018-10-12T04:21:22.657Z,23.7
2018-10-12T04:22:13.003Z,23.7
2018-10-12T04:23:03.379Z,23.7
2018-10-12T04:23:52.291Z,23.7
2018-10-12T04:24:42.950Z,23.7
2018-10-12T04:25:33.055Z,23.7
2018-10-12T04:26:23.054Z,23.7
2018-10-12T04:27:11.072Z,23.7
2018-10-12T04:28:02.871Z,23.7
2018-10-12T04:28:53.527Z,23.7
2018-10-12T04:29:43.556Z,23.7
2018-10-12T04:30:33.715Z,23.7
2018-10-12T04:31:23.427Z,23.7
2018-10-12T04:32:13.481Z,23.7
2018-10-12T04:33:03.340Z,23.7
2018-10-12T04:33:53.599Z,23.7
2018-10-12T04:34:43.089Z,23.6
2018-10-12T04:35:33.733Z,23.7
2018-10-12T04:36:23.824Z,23.7
2018-10-12T04:54:32.998Z,23.6
2018-10-12T04:55:23.120Z,23.7
2018-10-12T04:56:13.116Z,23.6
2018-10-12T04:57:02.915Z,23.6
2018-10-12T04:57:53.518Z,23.6
2018-10-12T04:58:43.307Z,23.6
2018-10-12T04:59:33.661Z,23.6
2018-10-12T05:00:23.675Z,23.6
2018-10-12T05:01:15.304Z,23.6
2018-10-12T05:02:03.514Z,23.6
2018-10-12T05:02:53.835Z,23.6
2018-10-12T05:03:43.410Z,23.6
2018-10-12T05:04:33.742Z,23.6
2018-10-12T05:05:23.438Z,23.6
2018-10-12T05:06:13.201Z,23.6
2018-10-12T05:07:04.162Z,23.6
2018-10-12T05:07:54.883Z,23.6
2018-10-12T05:08:43.171Z,23.6
2018-10-12T05:09:34.085Z,23.6
2018-10-12T05:10:24.206Z,23.6
2018-10-12T05:11:14.219Z,23.6
2018-10-12T05:12:04.567Z,23.6
2018-10-12T05:12:54.308Z,23.6
2018-10-12T05:13:44.089Z,23.6
2018-10-12T05:14:33.875Z,23.6
2018-10-12T05:15:24.244Z,23.6
2018-10-12T05:16:15.130Z,23.6
2018-10-12T05:17:04.357Z,23.6
2018-10-12T05:17:54.671Z,23.6
2018-10-12T05:18:44.770Z,23.6
2018-10-12T05:19:35.084Z,23.6
2018-10-12T05:20:24.874Z,23.5
2018-10-12T05:21:15.774Z,23.5
2018-10-12T05:22:06.760Z,23.5
2018-10-12T05:22:54.807Z,23.5
2018-10-12T05:23:44.878Z,23.5
2018-10-12T05:24:34.640Z,23.5
2018-10-12T05:25:25.216Z,23.5
2018-10-12T05:26:14.997Z,23.5
2018-10-12T05:27:05.378Z,23.5
2018-10-12T05:27:55.481Z,23.5
2018-10-12T05:28:45.759Z,23.5
2018-10-12T05:29:35.798Z,23.6
2018-10-12T05:30:26.442Z,23.5
2018-10-12T05:31:15.090Z,23.5
2018-10-12T05:32:04.919Z,23.5
2018-10-12T05:32:55.806Z,23.5
2018-10-12T05:33:46.103Z,23.5
2018-10-12T05:34:35.902Z,23.5
2018-10-12T05:35:25.709Z,23.5
2018-10-12T05:36:16.675Z,23.5
2018-10-12T05:37:06.095Z,23.5
2018-10-12T05:37:56.146Z,23.5
2018-10-12T05:38:46.258Z,23.5
2018-10-12T05:39:35.725Z,23.5
2018-10-12T05:40:26.381Z,23.5
2018-10-12T05:41:17.006Z,23.5
2018-10-12T05:42:06.165Z,23.5
2018-10-12T05:42:58.622Z,23.5
2018-10-12T05:43:47.454Z,23.5
2018-10-12T05:44:36.394Z,23.5
2018-10-12T05:45:26.456Z,23.4
2018-10-12T05:46:16.176Z,23.4
2018-10-12T05:47:07.193Z,23.5
2018-10-12T05:47:57.174Z,23.4
2018-10-12T05:48:47.429Z,23.4
2018-10-12T05:49:35.626Z,23.4
2018-10-12T05:50:26.788Z,23.4
2018-10-12T05:51:17.139Z,23.4
2018-10-12T05:52:07.527Z,23.4
2018-10-12T05:52:56.706Z,23.4
2018-10-12T05:53:47.378Z,23.4
2018-10-12T05:54:37.435Z,23.4
2018-10-12T05:55:27.152Z,23.4
2018-10-12T05:56:17.788Z,23.4
2018-10-12T05:57:07.781Z,23.4
2018-10-12T05:57:57.931Z,23.4
2018-10-12T05:58:47.160Z,23.4
2018-10-12T05:59:38.078Z,23.4
2018-10-12T06:00:27.547Z,23.4
2018-10-12T06:01:19.155Z,23.4
2018-10-12T06:02:08.810Z,23.4
2018-10-12T06:02:58.057Z,23.4
2018-10-12T06:03:47.811Z,23.4
2018-10-12T06:04:38.476Z,23.4
2018-10-12T06:05:27.955Z,23.4
2018-10-12T06:06:17.144Z,23.4
2018-10-12T06:07:08.817Z,23.4
2018-10-12T06:07:58.477Z,23.4
2018-10-12T06:08:48.500Z,23.4
2018-10-12T06:09:38.861Z,23.4
2018-10-12T06:10:28.079Z,23.4
2018-10-12T06:11:18.201Z,23.4
2018-10-12T06:12:08.966Z,23.4
2018-10-12T06:12:58.192Z,23.4
2018-10-12T06:13:48.839Z,23.4
2018-10-12T06:14:39.216Z,23.4
2018-10-12T06:15:29.496Z,23.4
2018-10-12T06:16:18.727Z,23.4
2018-10-12T06:17:09.052Z,23.4
2018-10-12T06:17:59.664Z,23.4
2018-10-12T06:18:49.224Z,23.4
2018-10-12T06:19:39.269Z,23.3
2018-10-12T06:20:29.068Z,26.7
2018-10-12T06:21:19.406Z,27.4
2018-10-12T06:22:09.147Z,29.8
2018-10-12T06:22:59.774Z,32.1
2018-10-12T06:23:49.052Z,33.3
2018-10-12T06:24:39.658Z,33.6
2018-10-12T06:25:30.053Z,32.5
2018-10-12T06:26:20.286Z,30.9
2018-10-12T06:27:10.138Z,29.8
2018-10-12T06:28:00.146Z,29.3
2018-10-12T06:28:49.917Z,29
2018-10-12T06:29:40.380Z,28.9
2018-10-12T06:30:29.788Z,28.9
2018-10-12T06:31:19.827Z,28.8
2018-10-12T06:32:10.426Z,28.8
2018-10-12T06:33:01.465Z,28.7
2018-10-12T06:33:49.727Z,28.6
2018-10-12T06:34:39.811Z,28.6
2018-10-12T06:35:30.443Z,28.5
2018-10-12T06:36:20.759Z,28.4
2018-10-12T06:37:10.817Z,28.3
2018-10-12T06:38:00.586Z,28.3
2018-10-12T06:38:50.668Z,28.2
2018-10-12T06:39:40.710Z,28.1
2018-10-12T06:40:29.652Z,28.1
2018-10-12T06:41:22.759Z,27.9
2018-10-12T06:42:11.215Z,27.8
2018-10-12T06:43:00.967Z,29.9
2018-10-12T06:43:51.075Z,30.5
2018-10-12T06:44:41.133Z,31.4
2018-10-12T06:45:30.986Z,32.1
2018-10-12T06:46:21.828Z,32.4
2018-10-12T06:47:11.581Z,32.4
2018-10-12T06:48:01.350Z,32.5
2018-10-12T06:48:51.126Z,32.5
2018-10-12T06:49:40.953Z,32.5
2018-10-12T06:50:30.410Z,32.6
2018-10-12T06:51:21.646Z,32.6
2018-10-12T06:52:11.371Z,32.6
2018-10-12T06:53:02.037Z,32.6
2018-10-12T06:53:52.356Z,32.6
2018-10-12T06:54:42.406Z,32.6
2018-10-12T06:55:31.938Z,32.7
2018-10-12T06:56:22.325Z,32.7
2018-10-12T06:57:11.776Z,32.8
2018-10-12T06:58:02.391Z,32.7
2018-10-12T06:58:52.152Z,32.8
2018-10-12T06:59:42.567Z,32.8
2018-10-12T07:00:31.434Z,32.8
2018-10-12T07:01:22.392Z,32.9
2018-10-12T07:02:12.637Z,32.9
2018-10-12T07:03:02.158Z,33
2018-10-12T07:03:52.272Z,33.1
2018-10-12T07:04:42.567Z,33.3
2018-10-12T07:05:33.115Z,33.4
2018-10-12T07:06:23.042Z,33.5
2018-10-12T07:07:12.805Z,33.6
2018-10-12T07:08:03.632Z,33.8
2018-10-12T07:08:53.132Z,34.1
2018-10-12T07:09:41.538Z,34.4
2018-10-12T07:10:33.024Z,34.7
2018-10-12T07:11:23.366Z,34.9
2018-10-12T07:12:12.861Z,35.3
2018-10-12T07:13:03.439Z,35.4
2018-10-12T07:13:53.262Z,35.7
2018-10-12T07:14:43.042Z,35.9
2018-10-12T07:15:33.612Z,36.1
2018-10-12T07:16:23.183Z,36.3
2018-10-12T07:17:13.759Z,36.5
2018-10-12T07:18:04.314Z,36.6
2018-10-12T07:18:53.032Z,36.8
2018-10-12T07:19:45.680Z,37
2018-10-12T07:20:33.840Z,37.2
2018-10-12T07:21:23.561Z,37.4
2018-10-12T07:22:13.280Z,37.5
2018-10-12T07:23:05.044Z,37.7
2018-10-12T07:23:53.147Z,37.9
2018-10-12T07:24:44.066Z,38.1
2018-10-12T07:25:34.147Z,38.3
2018-10-12T07:26:23.625Z,38.4
2018-10-12T07:27:13.491Z,38.6
2018-10-12T07:28:03.190Z,38.7
2018-10-12T07:28:54.640Z,38.9
2018-10-12T07:29:44.672Z,39
2018-10-12T07:30:34.269Z,39.2
2018-10-12T07:31:24.896Z,39.4
2018-10-12T07:32:14.050Z,39.5
2018-10-12T07:33:05.231Z,39.7
2018-10-12T07:33:54.762Z,39.9
2018-10-12T07:34:44.517Z,40.1
2018-10-12T07:35:35.152Z,40.2
2018-10-12T07:36:24.674Z,40.4
2018-10-12T07:37:15.085Z,40.6
2018-10-12T07:38:04.839Z,40.7
2018-10-12T07:38:54.830Z,40.9
2018-10-12T07:39:44.392Z,41.1
2018-10-12T07:40:35.734Z,41.3
2018-10-12T07:41:24.734Z,41.4
2018-10-12T07:42:15.253Z,41.6
2018-10-12T07:43:05.659Z,41.7
2018-10-12T07:43:54.609Z,41.9
2018-10-12T07:44:45.529Z,42.1
2018-10-12T07:45:36.660Z,42.3
2018-10-12T07:46:25.907Z,42.4
2018-10-12T07:47:16.542Z,42.6
2018-10-12T07:48:05.432Z,42.7
2018-10-12T07:48:55.264Z,42.9
2018-10-12T07:49:45.389Z,43.1
2018-10-12T07:50:35.875Z,43.2
2018-10-12T07:51:25.492Z,43.4
2018-10-12T07:52:15.542Z,43.6
2018-10-12T07:53:06.190Z,43.7
2018-10-12T07:53:56.229Z,43.9
2018-10-12T07:54:45.456Z,44.1
2018-10-12T07:55:36.377Z,44.2
2018-10-12T07:56:26.669Z,44.4
2018-10-12T07:57:16.463Z,44.5
2018-10-12T07:58:06.243Z,44.7
2018-10-12T07:58:57.414Z,44.9
2018-10-12T07:59:46.930Z,45
2018-10-12T08:00:37.709Z,45.1
2018-10-12T08:01:27.143Z,45.2
2018-10-12T08:02:16.911Z,45.4
2018-10-12T08:03:06.615Z,45.5
2018-10-12T08:03:56.138Z,45.6
2018-10-12T08:04:47.318Z,45.7
2018-10-12T08:05:37.253Z,45.8
2018-10-12T08:06:27.907Z,45.9
2018-10-12T08:07:17.465Z,46.2
2018-10-12T08:08:06.967Z,46.4
2018-10-12T08:08:57.563Z,46.6
2018-10-12T08:09:48.941Z,46.8
2018-10-12T08:10:38.168Z,46.9
2018-10-12T08:11:27.829Z,47
2018-10-12T08:12:17.310Z,47.1
2018-10-12T08:13:07.631Z,47.3
2018-10-12T08:13:58.564Z,47.4
2018-10-12T08:14:47.813Z,47.7
2018-10-12T08:15:38.361Z,47.8
2018-10-12T08:16:27.856Z,47.8
2018-10-12T08:17:18.195Z,47.8
2018-10-12T08:18:07.980Z,47.9
2018-10-12T08:18:58.343Z,48.1
2018-10-12T08:19:47.573Z,48.3
2018-10-12T08:20:38.742Z,48.4
2018-10-12T08:21:28.529Z,48.7
2018-10-12T08:22:18.301Z,48.8
2018-10-12T08:23:08.647Z,48.9
2018-10-12T08:23:57.921Z,49.1
2018-10-12T08:24:49.036Z,49.3
2018-10-12T08:25:38.750Z,49.5
2018-10-12T08:26:28.899Z,49.7
2018-10-12T08:27:18.412Z,49.8
2018-10-12T08:28:08.760Z,50
2018-10-12T08:28:58.305Z,50.1
2018-10-12T08:29:48.742Z,50.3
2018-10-12T08:30:38.102Z,50.4
2018-10-12T08:31:28.640Z,50.6
2018-10-12T08:32:18.560Z,50.7
2018-10-12T08:33:08.494Z,50.8
2018-10-12T08:33:58.109Z,50.9
2018-10-12T08:34:48.766Z,51.1
2018-10-12T08:35:39.543Z,51.2
2018-10-12T08:36:29.299Z,51.3
2018-10-12T08:37:19.993Z,51.4
2018-10-12T08:38:09.241Z,51.6
2018-10-12T08:38:59.589Z,51.7
2018-10-12T08:39:48.873Z,51.9
2018-10-12T08:41:29.746Z,51.6
2018-10-12T08:42:20.079Z,51.6
2018-10-12T08:43:09.031Z,51.6
2018-10-12T08:43:59.940Z,51.6
2018-10-12T08:44:50.326Z,51.8
2018-10-12T08:46:29.853Z,52.1
2018-10-12T08:47:20.681Z,52.2
2018-10-12T08:48:10.245Z,52.3
2018-10-12T08:49:49.353Z,52.6
2018-10-12T08:50:40.437Z,52.6
2018-10-12T08:51:30.775Z,52.8
2018-10-12T08:52:20.233Z,52.9
2018-10-12T09:08:53.941Z,54.1
2018-10-12T09:09:44.262Z,54.3
2018-10-12T09:10:33.906Z,54.3
2018-10-12T09:11:23.542Z,54.4
2018-10-12T09:12:13.885Z,54.4
2018-10-12T09:13:03.948Z,54.6
2018-10-12T09:13:53.912Z,54.7
2018-10-12T09:14:44.366Z,54.8
2018-10-12T09:15:33.867Z,54.9
2018-10-12T09:16:24.273Z,55
2018-10-12T09:17:13.953Z,55.1
2018-10-12T09:18:04.289Z,55.3
2018-10-12T09:18:55.153Z,55.4
2018-10-12T09:19:43.591Z,55.4
2018-10-12T09:20:37.471Z,55.6
2018-10-12T09:21:23.664Z,55.7
2018-10-12T09:22:14.017Z,55.9
2018-10-12T09:23:03.611Z,56
2018-10-12T09:23:54.171Z,56.1
2018-10-12T09:24:45.148Z,56.2
2018-10-12T09:25:34.173Z,56.3
2018-10-12T09:26:23.933Z,56.4
2018-10-12T09:27:15.127Z,56.5
2018-10-12T09:28:04.536Z,56.7
2018-10-12T09:28:54.328Z,56.8
2018-10-12T09:29:44.096Z,56.8
2018-10-12T09:30:35.583Z,56.8
2018-10-12T09:31:25.051Z,56.8
2018-10-12T09:32:15.113Z,56.9
2018-10-12T09:33:05.218Z,57
2018-10-12T09:33:54.993Z,57.1
2018-10-12T09:34:43.725Z,57.1
2018-10-12T09:35:34.546Z,57
2018-10-12T09:36:25.383Z,56.9
2018-10-12T09:37:16.040Z,57.1
2018-10-12T09:38:06.027Z,57.3
2018-10-12T09:38:55.345Z,57.5
2018-10-12T09:39:45.784Z,57.7
2018-10-12T09:40:35.470Z,57.8
2018-10-12T09:41:26.292Z,57.7
2018-10-12T09:42:15.310Z,57.5
2018-10-12T09:43:05.443Z,57.4
2018-10-12T09:43:54.564Z,57.3
2018-10-12T09:44:45.529Z,57.2
2018-10-12T09:45:36.127Z,57.1
2018-10-12T09:46:25.287Z,57
2018-10-12T09:47:15.998Z,56.9
2018-10-12T09:48:05.179Z,56.7
2018-10-12T09:48:55.512Z,56.6
2018-10-12T09:49:45.854Z,56.6
2018-10-12T09:50:36.179Z,56.6
2018-10-12T09:51:25.614Z,56.6
2018-10-12T09:52:16.058Z,56.6
2018-10-12T09:53:06.139Z,56.6
2018-10-12T09:53:56.166Z,56.8
2018-10-12T09:54:46.027Z,56.9
2018-10-12T09:55:36.830Z,57.1
2018-10-12T09:56:26.930Z,57.5
2018-10-12T09:57:16.145Z,57.8
2018-10-12T09:58:06.476Z,58.1
2018-10-12T09:58:56.561Z,58.2
2018-10-12T09:59:46.594Z,58.1
2018-10-12T10:00:36.928Z,57.9
2018-10-12T10:01:27.274Z,57.7
2018-10-12T10:02:18.238Z,57.6
2018-10-12T10:03:06.404Z,57.5
2018-10-12T10:03:56.958Z,57.4
2018-10-12T10:04:46.496Z,57.1
2018-10-12T10:05:37.272Z,56.9
2018-10-12T10:06:27.144Z,56.9
2018-10-12T10:07:17.451Z,56.9
2018-10-12T10:08:08.228Z,56.9
2018-10-12T10:08:58.437Z,57.1
2018-10-12T10:09:48.438Z,57.2
2018-10-12T10:10:36.391Z,57.3
2018-10-12T10:11:27.481Z,57.5
2018-10-12T10:12:17.808Z,57.7
2018-10-12T10:13:07.052Z,57.7
2018-10-12T10:13:58.336Z,57.7
2018-10-12T10:14:47.750Z,57.6
2018-10-12T10:15:38.097Z,57.7
2018-10-12T10:16:28.332Z,57.6
2018-10-12T10:17:18.265Z,57.6
2018-10-12T10:18:08.288Z,57.3
2018-10-12T10:18:58.557Z,56.9
2018-10-12T10:19:48.142Z,56.7
2018-10-12T10:20:38.393Z,56.5
2018-10-12T10:21:28.008Z,56.3
2018-10-12T10:22:18.300Z,56.2
2018-10-12T10:23:08.635Z,56.3
2018-10-12T10:23:58.117Z,56.6
2018-10-12T10:24:48.194Z,57.1
2018-10-12T10:25:38.532Z,57.4
2018-10-12T10:27:18.792Z,57.8
2018-10-12T10:28:09.215Z,57.7
2018-10-12T10:28:59.373Z,57.1
2018-10-12T10:29:49.205Z,56.6
2018-10-12T10:30:38.906Z,56.3
2018-10-12T10:31:28.392Z,56
2018-10-12T10:32:20.080Z,55.8
2018-10-12T10:33:09.615Z,55.7
2018-10-12T10:34:00.174Z,55.5
2018-10-12T10:34:48.909Z,55.4
2018-10-12T10:35:40.092Z,55.3
2018-10-12T10:36:29.198Z,55.1
2018-10-12T10:37:20.177Z,54.9
2018-10-12T10:38:09.711Z,54.9
2018-10-12T10:39:00.860Z,54.8
2018-10-12T10:39:49.015Z,54.7
2018-10-12T10:40:39.532Z,54.6
2018-10-12T10:41:30.190Z,54.5
2018-10-12T10:42:20.556Z,54.5
2018-10-12T10:43:10.389Z,54.4
2018-10-12T10:43:59.577Z,54.3
2018-10-12T10:44:50.157Z,54.3
2018-10-12T10:45:39.696Z,54.3
2018-10-12T10:46:31.597Z,54.1
2018-10-12T10:47:20.130Z,54.1
2018-10-12T10:48:10.774Z,54
2018-10-12T10:49:00.026Z,54
2018-10-12T10:49:50.031Z,54
2018-10-12T10:50:40.137Z,54
2018-10-12T10:51:31.197Z,53.9
2018-10-12T10:52:20.763Z,53.8
2018-10-12T10:53:10.587Z,53.7
2018-10-12T10:54:00.133Z,53.6
2018-10-12T10:54:50.405Z,53.6
2018-10-12T10:55:40.774Z,53.4
2018-10-12T10:56:30.807Z,53.4
2018-10-12T10:57:21.053Z,53.3
2018-10-12T10:58:11.426Z,53.2
2018-10-12T10:59:01.081Z,53.1
2018-10-12T10:59:51.618Z,53.1
2018-10-12T11:00:41.228Z,53
2018-10-12T11:01:31.482Z,52.9
2018-10-12T11:02:21.185Z,53.1
2018-10-12T11:03:12.441Z,53.4
2018-10-12T11:04:01.665Z,53.7
2018-10-12T11:04:50.931Z,53.9
2018-10-12T11:05:41.460Z,54.3
2018-10-12T11:06:32.485Z,54.6
2018-10-12T11:07:22.242Z,54.8
2018-10-12T11:08:12.235Z,55.1
2018-10-12T11:09:01.540Z,55.2
2018-10-12T11:09:51.835Z,55.4
2018-10-12T11:10:42.162Z,55.6
2018-10-12T11:11:31.650Z,55.8
2018-10-12T11:12:23.844Z,55.9
2018-10-12T11:13:11.780Z,56.1
2018-10-12T11:14:01.555Z,56.3
2018-10-12T11:14:52.717Z,56.4
2018-10-12T11:15:42.224Z,56.6
2018-10-12T11:16:32.560Z,56.8
2018-10-12T11:17:22.285Z,56.9
2018-10-12T11:18:12.674Z,57.1
2018-10-12T11:19:02.262Z,57.1
2018-10-12T11:19:52.257Z,57.1
2018-10-12T11:20:41.741Z,57.1
2018-10-12T11:21:32.572Z,57.2
2018-10-12T11:22:23.512Z,57.3
2018-10-12T11:23:13.282Z,57.5
2018-10-12T11:24:03.634Z,57.6
2018-10-12T11:24:53.143Z,57.5
2018-10-12T11:25:43.450Z,57.4
2018-10-12T11:26:34.821Z,57.6
2018-10-12T11:28:14.533Z,57.9
2018-10-12T11:29:03.656Z,58.2
2018-10-12T11:29:53.777Z,58.4
2018-10-12T11:30:43.800Z,58.5
2018-10-12T11:31:34.166Z,58.5
2018-10-12T11:32:23.965Z,58.4
2018-10-12T11:33:14.831Z,58.4
2018-10-12T11:34:54.139Z,58.8
2018-10-12T11:35:44.221Z,58.9
2018-10-12T11:36:33.460Z,59.1
2018-10-12T11:37:24.106Z,59.1
2018-10-12T11:38:15.077Z,59.3
2018-10-12T11:39:04.145Z,59.3
2018-10-12T11:39:54.273Z,59.1
2018-10-12T11:40:44.826Z,59.1
2018-10-12T11:41:34.903Z,59.1
2018-10-12T11:42:24.413Z,59.2
2018-10-12T11:43:14.823Z,59.4
2018-10-12T11:44:04.838Z,59.4
2018-10-12T11:44:56.463Z,59.6
2018-10-12T11:45:45.275Z,59.6
2018-10-12T11:46:34.265Z,59.7
2018-10-12T11:47:25.632Z,59.7
2018-10-12T11:48:14.870Z,59.7
2018-10-12T11:49:04.978Z,59.7
2018-10-12T11:49:54.466Z,59.7
2018-10-12T11:50:45.038Z,59.8
2018-10-12T11:51:35.382Z,59.8
2018-10-12T11:52:25.725Z,59.8
2018-10-12T11:53:14.943Z,59.9
2018-10-12T11:54:06.108Z,59.8
2018-10-12T11:54:55.916Z,59.6
2018-10-12T11:55:45.703Z,59.7
2018-10-12T11:56:36.059Z,59.8
2018-10-12T11:57:25.307Z,59.8
2018-10-12T11:58:15.566Z,59.9
2018-10-12T11:59:05.895Z,59.9
2018-10-12T11:59:56.272Z,59.8
2018-10-12T12:00:45.048Z,59.7
2018-10-12T12:01:36.203Z,59.5
2018-10-12T12:02:26.136Z,59.3